createdAt,value
2019-01-12T00:04:08.780Z,86.20
2019-01-12T00:09:12.528Z,85.90
2019-01-12T00:14:15.892Z,85.70
2019-01-12T00:19:19.420Z,86.30
2019-01-12T00:24:23.193Z,86.40
2019-01-12T00:29:26.584Z,86.40
2019-01-12T00:34:29.977Z,86.10
2019-01-12T00:39:33.373Z,85.60
2019-01-12T00:44:36.792Z,85.70
2019-01-12T00:49:40.187Z,86.30
2019-01-12T00:54:43.571Z,86.00
2019-01-12T00:59:46.979Z,86.30
2019-01-12T01:04:50.374Z,85.50
2019-01-12T01:09:53.769Z,85.90
2019-01-12T01:14:57.164Z,85.50
2019-01-12T01:20:00.889Z,85.50
2019-01-12T01:25:06.393Z,85.20
2019-01-12T01:30:13.332Z,85.00
2019-01-12T01:35:16.739Z,84.90
2019-01-12T01:40:20.128Z,85.40
2019-01-12T01:45:23.920Z,85.10
2019-01-12T01:50:27.607Z,84.60
2019-01-12T01:55:31.012Z,84.90
2019-01-12T02:00:34.410Z,85.00
2019-01-12T02:05:38.196Z,85.20
2019-01-12T02:10:41.592Z,85.30
2019-01-12T02:15:45.446Z,85.70
2019-01-12T02:20:48.840Z,84.70
2019-01-12T02:25:52.552Z,85.40
2019-01-12T02:30:55.949Z,85.40
2019-01-12T02:35:59.362Z,85.40
2019-01-12T02:41:02.757Z,85.60
2019-01-12T02:46:06.152Z,85.80
2019-01-12T02:51:09.558Z,85.00
2019-01-12T02:56:13.297Z,84.70
2019-01-12T03:01:16.749Z,85.50
2019-01-12T03:06:20.149Z,85.70
2019-01-12T03:11:23.551Z,85.80
2019-01-12T03:16:26.947Z,85.50
2019-01-12T03:21:30.341Z,85.00
2019-01-12T03:26:34.108Z,85.00
2019-01-12T03:31:37.510Z,84.90
2019-01-12T03:36:40.982Z,84.80
2019-01-12T03:41:44.381Z,84.80
2019-01-12T03:46:47.796Z,84.80
2019-01-12T03:51:51.208Z,85.70
2019-01-12T03:56:54.614Z,85.60
2019-01-12T04:01:58.341Z,85.90
2019-01-12T04:07:01.736Z,86.40
2019-01-12T04:12:05.144Z,85.80
2019-01-12T04:17:08.557Z,85.80
2019-01-12T04:22:11.964Z,85.20
2019-01-12T04:27:15.365Z,85.40
2019-01-12T04:32:19.121Z,84.90
2019-01-12T04:37:22.529Z,84.90
2019-01-12T04:42:25.933Z,85.60
2019-01-12T04:47:29.554Z,85.70
2019-01-12T04:52:32.966Z,86.40
2019-01-12T04:57:36.382Z,86.70
2019-01-12T05:02:39.805Z,86.30
2019-01-12T05:07:43.326Z,85.90
2019-01-12T05:12:46.729Z,85.70
2019-01-12T05:17:50.146Z,85.70
2019-01-12T05:22:53.594Z,85.20
2019-01-12T05:27:56.977Z,86.10
2019-01-12T05:33:00.792Z,86.30
2019-01-12T05:38:04.194Z,85.80
2019-01-12T05:43:08.226Z,86.30
2019-01-12T05:48:11.669Z,86.70
2019-01-12T05:53:15.094Z,86.60
2019-01-12T05:58:18.902Z,87.00
2019-01-12T06:03:22.621Z,87.10
2019-01-12T06:08:26.028Z,86.50
2019-01-12T06:13:29.438Z,86.10
2019-01-12T06:18:33.174Z,86.00
2019-01-12T06:23:36.627Z,85.70
2019-01-12T06:28:40.021Z,86.10
2019-01-12T06:33:43.432Z,86.30
2019-01-12T06:38:47.486Z,86.60
2019-01-12T06:43:50.881Z,86.80
2019-01-12T06:48:54.306Z,86.30
2019-01-12T06:53:57.729Z,85.90
2019-01-12T06:59:01.411Z,85.80
2019-01-12T07:04:04.818Z,86.00
2019-01-12T07:09:08.239Z,85.40
2019-01-12T07:14:11.761Z,85.60
2019-01-12T07:19:15.175Z,85.10
2019-01-12T07:24:18.597Z,86.00
2019-01-12T07:29:22.301Z,86.90
2019-01-12T07:34:25.697Z,86.60
2019-01-12T07:39:29.461Z,86.00
2019-01-12T07:44:32.879Z,85.80
2019-01-12T07:49:36.322Z,86.20
2019-01-12T07:54:39.737Z,85.60
2019-01-12T07:59:43.441Z,85.70
2019-01-12T08:04:46.872Z,85.70
2019-01-12T08:09:50.270Z,84.90
2019-01-12T08:14:54.029Z,84.90
2019-01-12T08:19:57.458Z,85.30
2019-01-12T08:25:00.878Z,86.30
2019-01-12T08:30:10.612Z,86.50
2019-01-12T08:35:14.607Z,86.20
2019-01-12T08:40:18.001Z,85.10
2019-01-12T08:50:24.590Z,85.20
2019-01-12T08:55:27.998Z,85.50
2019-01-12T09:00:31.409Z,85.70
2019-01-12T09:05:34.825Z,85.40
2019-01-12T09:10:38.248Z,84.80
2019-01-12T09:15:42.101Z,84.60
2019-01-12T09:20:45.525Z,84.50
2019-01-12T09:25:49.246Z,85.40
2019-01-12T09:30:52.983Z,85.00
2019-01-12T09:35:56.386Z,86.10
2019-01-12T09:40:59.793Z,86.10
2019-01-12T09:46:03.249Z,85.90
2019-01-12T09:51:07.019Z,84.00
2019-01-12T09:56:10.782Z,83.30
2019-01-12T10:01:14.561Z,85.50
2019-01-12T10:06:17.970Z,85.10
2019-01-12T10:11:21.386Z,84.10
2019-01-12T10:16:24.777Z,85.00
2019-01-12T10:21:28.570Z,84.30
2019-01-12T10:26:32.262Z,84.30
2019-01-12T10:31:35.695Z,84.30
2019-01-12T10:36:39.109Z,83.50
2019-01-12T10:41:42.540Z,83.80
2019-01-12T10:46:45.977Z,80.90
2019-01-12T10:51:49.401Z,81.70
2019-01-12T10:56:52.835Z,80.00
2019-01-12T11:01:56.245Z,80.60
2019-01-12T11:06:59.655Z,79.60
2019-01-12T11:12:03.463Z,80.90
2019-01-12T11:17:07.234Z,82.60
2019-01-12T11:22:10.645Z,82.70
2019-01-12T11:27:14.044Z,81.90
2019-01-12T11:32:17.481Z,81.50
2019-01-12T11:37:20.898Z,82.20
2019-01-12T11:42:24.325Z,81.80
2019-01-12T11:47:27.726Z,82.90
2019-01-12T11:52:31.514Z,85.10
2019-01-12T11:57:34.932Z,85.70
2019-01-12T12:02:38.337Z,85.40
2019-01-12T12:07:41.827Z,85.40
2019-01-12T12:12:45.242Z,86.40
2019-01-12T12:17:48.685Z,86.50
2019-01-12T12:22:52.085Z,86.50
2019-01-12T12:27:55.802Z,86.00
2019-01-12T12:32:59.207Z,86.90
2019-01-12T12:38:02.604Z,87.00
2019-01-12T12:43:06.048Z,86.90
2019-01-12T12:48:09.455Z,86.70
2019-01-12T12:53:12.858Z,86.40
2019-01-12T12:58:16.279Z,84.90
2019-01-12T13:03:20.092Z,83.80
2019-01-12T13:08:23.784Z,83.00
2019-01-12T13:13:27.189Z,81.70
2019-01-12T13:18:30.589Z,81.40
2019-01-12T13:23:33.990Z,81.60
2019-01-12T13:28:37.786Z,81.00
2019-01-12T13:33:41.262Z,81.90
2019-01-12T13:38:44.662Z,81.90
2019-01-12T13:43:48.446Z,82.20
2019-01-12T13:48:52.152Z,82.20
2019-01-12T13:53:55.539Z,82.20
2019-01-12T13:58:58.934Z,83.10
2019-01-12T14:04:02.897Z,83.60
2019-01-12T14:09:07.834Z,83.80
2019-01-12T14:14:11.288Z,83.30
2019-01-12T14:19:14.918Z,83.70
2019-01-12T14:24:18.329Z,84.00
2019-01-12T14:29:22.693Z,84.30
2019-01-12T14:34:26.412Z,83.80
2019-01-12T14:39:30.350Z,83.80
2019-01-12T14:44:33.726Z,83.50
2019-01-12T14:49:37.445Z,83.50
2019-01-12T14:54:40.854Z,83.60
2019-01-12T14:59:44.259Z,82.90
2019-01-12T15:04:48.066Z,82.90
2019-01-12T15:09:51.445Z,82.80
2019-01-12T15:14:54.845Z,82.80
2019-01-12T15:19:58.292Z,82.60
2019-01-12T15:25:01.708Z,82.10
2019-01-12T15:30:14.323Z,81.90
2019-01-12T15:35:18.553Z,81.80
2019-01-12T15:40:23.140Z,82.10
2019-01-12T15:45:27.023Z,82.60
2019-01-12T15:50:30.436Z,82.80
2019-01-12T15:55:34.202Z,82.50
2019-01-12T16:00:37.606Z,82.80
2019-01-12T16:05:41.072Z,83.50
2019-01-12T16:10:44.478Z,83.50
2019-01-12T16:15:48.204Z,83.70
2019-01-12T16:20:51.620Z,83.70
2019-01-12T16:25:55.135Z,84.00
2019-01-12T16:30:58.572Z,84.30
2019-01-12T16:36:02.358Z,84.10
2019-01-12T16:41:05.766Z,84.20
2019-01-12T16:46:09.458Z,84.40
2019-01-12T16:51:12.858Z,84.60
2019-01-12T16:56:16.281Z,85.00
2019-01-12T17:01:19.685Z,84.50
2019-01-12T17:06:23.109Z,84.80
2019-01-12T17:11:26.922Z,84.30
2019-01-12T17:16:30.386Z,84.40
2019-01-12T17:21:34.102Z,84.10
2019-01-12T17:26:37.831Z,84.00
2019-01-12T17:31:41.321Z,83.80
2019-01-12T17:36:45.545Z,82.90
2019-01-12T17:41:49.040Z,84.40
2019-01-12T17:46:52.950Z,84.10
2019-01-12T17:51:56.693Z,84.30
2019-01-12T17:57:00.097Z,84.40
2019-01-12T18:02:03.514Z,84.90
2019-01-12T18:07:06.968Z,85.20
2019-01-12T18:12:10.504Z,86.10
2019-01-12T18:17:13.960Z,85.60
2019-01-12T18:22:17.496Z,85.40
2019-01-12T18:27:20.901Z,86.10
2019-01-12T18:32:24.382Z,86.60
2019-01-12T18:37:27.822Z,86.00
2019-01-12T18:42:31.293Z,85.60
2019-01-12T18:47:34.738Z,86.10
2019-01-12T18:52:38.162Z,86.30
2019-01-12T18:57:41.557Z,86.30
2019-01-12T19:02:44.958Z,86.70
2019-01-12T19:07:48.368Z,86.30
2019-01-12T19:12:52.085Z,87.10
2019-01-12T19:17:55.490Z,88.00
2019-01-12T19:22:58.898Z,87.40
2019-01-12T19:28:02.309Z,90.00
2019-01-12T19:33:05.701Z,90.30
2019-01-12T19:38:09.106Z,90.20
2019-01-12T19:43:12.512Z,90.10
2019-01-12T19:48:15.926Z,90.40
2019-01-12T19:53:20.529Z,90.30
2019-01-12T19:58:23.933Z,90.30
2019-01-12T20:03:27.338Z,90.40
2019-01-12T20:08:31.207Z,90.50
2019-01-12T20:13:35.781Z,90.60
2019-01-12T20:18:39.859Z,90.60
2019-01-12T20:23:43.961Z,90.90
2019-01-12T20:28:47.526Z,90.80
2019-01-12T20:34:00.337Z,91.10
2019-01-12T20:39:18.742Z,91.20
2019-01-12T20:44:40.620Z,91.40
2019-01-12T20:49:47.617Z,91.20
2019-01-12T20:55:18.651Z,91.10
2019-01-12T21:00:42.119Z,91.50
2019-01-12T21:05:48.797Z,91.00
2019-01-12T21:10:58.344Z,91.10
2019-01-12T21:16:06.386Z,90.80
2019-01-12T21:21:09.830Z,90.50
2019-01-12T21:26:13.342Z,90.40
2019-01-12T21:31:16.786Z,90.50
2019-01-12T21:36:21.213Z,90.00
2019-01-12T21:41:24.918Z,90.20
2019-01-12T21:46:28.766Z,90.40
2019-01-12T21:51:32.214Z,90.40
2019-01-12T21:56:35.694Z,90.20
2019-01-12T22:01:39.117Z,90.40
2019-01-12T22:06:43.051Z,90.00
2019-01-12T22:11:46.543Z,90.00
2019-01-12T22:16:50.506Z,90.20
2019-01-12T22:21:54.352Z,90.00
2019-01-12T22:26:57.874Z,90.30
2019-01-12T22:32:01.738Z,90.50
2019-01-12T22:37:05.176Z,90.30
2019-01-12T22:42:08.641Z,90.50
2019-01-12T22:47:12.093Z,90.40
2019-01-12T22:52:16.040Z,90.70
2019-01-12T22:57:19.576Z,90.70
2019-01-12T23:02:23.378Z,91.00
2019-01-12T23:07:26.902Z,90.80
2019-01-12T23:12:30.337Z,90.70
2019-01-12T23:17:33.819Z,90.80
2019-01-12T23:22:37.251Z,90.60
2019-01-12T23:27:40.711Z,90.60
2019-01-12T23:32:44.165Z,90.50
2019-01-12T23:37:47.630Z,90.60
2019-01-12T23:42:51.026Z,90.50
2019-01-12T23:47:54.466Z,90.20
2019-01-12T23:52:58.226Z,90.30
2019-01-12T23:58:01.663Z,90.30
